Create Custom Reports and Graphics: Custom Report

Latest Observations

MWA Stations

15 Minute Data | America/Los_Angeles
as of 5/6/26 3:12 AM PDT
Station Date Time Temp (°F) WindChill (°F) RH (%) Dew Pt (°F) Wind Dir (°) Wind Spd (mph) Wind Gust (mph) Solar Rad (W/m2) Pressure (mb) Daily Min Temp (°F) Daily Max Temp (°F) Daily Max Wind (mph) Daily Rain (In) Yest MinT (°F) Yest MaxT (°F) Yest MaxGst (mph) Yest Precip (In) MinBV Day (V)
MWA Office 5/6/26 0300 45.7   2.9 - 77   1 38.8   3.0 NNE | 23 0.3   7.5 1.5   12.7 0   0 1,019.5   5.5 45.3   3.2 47.8   2.1 2.6   13.6 0.00 47.7 65.5 23.0 0.00 12.5   0.0
MWA OPS 5/6/26 0300 45.1   2.6 43.8   0.8 79   1 38.9   2.8 SSW | 203 3.4   3.4 5.7   7.2 0   0 1,018.5   5.3 44.4   3.1 47.8   1.2 8.6   8.3 0.00 47.0 62.4 24.6 0.00 12.8   0.0
LV-PS 5/6/26 0300 47.8   2.3 45.2 65   3 36.8   0.8 SW | 230 5.7   4.8 8.6   9.9 0   0 1,017.1   5.8 46.2   2.6 48.1   5.6 8.8   9.6 0.00 46.3 66.3 28.1 0.00 12.8   0.0
JV-PS 5/6/26 0300 50.3   0.7 - 60   2 36.9   1.7 SW | 234 3.9   2.4 6.6   5.9 0   0 1,016.2   4.8 49.6   0.2 51.2   4.0 8.8   7.9 0.00 46.8 67.6 21.3 0.00 13.0   0.0
BDVWA 5/6/26 0300 48.9   4.2 47.9   4.5 52   1 32.2   4.1 W | 266 3.7   0.3 5.5   0.4 0   0 1,015.6   3.3 48.3   4.2 54.0   7.1 11.0   3.7 0.00 41.4 63.9 18.8 0.00 12.9   0.0
Newberry Springs 5/6/26 0300 54.8   4.0 - 58   14 40.5   3.0 N | 354 11.9   3.3 19.5   6.4 0   0 1,015.2   5.5 54.6   3.7 57.7   2.2 20.6   10.3 0.00 54.4 73.5 32.7 0.00 12.9   0.0
Pinon Hills 5/6/26 0300 38.3   0.8 36.1 73   0 30.3   0.9 SW | 226 3.3   1.5 6.4   2.6 0   0 1,019.4   5.2 38.1   0.6 42.6   1.4 8.1   1.8 0.00 38.2 55.7 21.5 0.00 12.9   0.0
Helendale 5/6/26 0300 49.2   0.1 46.0   0.5 75   0 41.6   0.2 SSW | 205 7.3   0.6 11.8   0.9 0   0 1,016.8   4.4 47.9   1.2 50.2   1.4 12.7   0.2 0.00 46.6 69.8 27.0 0.00 12.8   0.0
Lenwood 5/6/26 0300 48.2   2.7 47.5 73   6 39.8   0.4 W | 279 2.6   5.6 3.7   9.0 0   0 1,017.2   5.1 47.7   2.6 53.0   0.6 5.7   13.2 0.00 48.9 71.0 25.6 0.00 12.8   0.0
Oak Hills 5/6/26 0300 40.6   1.6 34.3   2.7 92   7 38.4   3.6 SSW | 209 7.8   2.3 12.9   0.9 0   0 1,019.1   5.2 40.4   1.9 41.0   1.8 14.5   1.1 0.00 40.8 55.2 24.6 0.00 13.0   0.0
Pipes Wash Canyon 5/6/26 0300 46.4   6.0 44.1 48   11 27.8   0.5 W | 278 3.2   1.5 6.6   2.6 0   0 1,015.3   2.9 44.7   6.3 47.6   4.0 6.6   2.2 0.00 37.8 58.0 15.8 0.00 12.9   0.0
Max     54.8 47.9 92 41.6 - 11.9 19.5 0 1,019.5 54.6 57.7 20.6 0.00 54.4 73.5 32.7 0.00 13.0
Avg     46.8 43.1 68 36.6 - 4.8 8.1 0 1,017.3 - - - - - - - - -
Min     38.3 34.3 48 27.8 - 0.3 1.5 0 1,015.2 38.1 41.0 2.6 0.00 37.8 55.2 15.8 0.00 12.5

Latest Observations

Map

15 Minute Data

Rainfall & ETo

MWA Stations

15 Minute Data | America/Los_Angeles
as of 5/6/26 3:12 AM PDT
Station Date Time Latest Rain (In) Daily Rain (In) Yest Precip (In) Month Precip (In) Season Precip (In) Daily ETo (in) Yest ETo (In) 7 Day ETo (in)
MWA Office 5/6/26 0300 0.00 0.00 0.00 0.00 4.30 0.000 0.17 1.55
MWA OPS 5/6/26 0300 0.00 0.00 0.00 0.00 9.32 0.000 0.17 1.57
LV-PS 5/6/26 0300 0.00 0.00 0.00 0.00 3.63 0.000 0.21 1.77
JV-PS 5/6/26 0300 0.00 0.00 0.00 0.00 6.38 0.000 0.19 1.79
BDVWA 5/6/26 0300 0.00 0.00 0.00 0.00 6.35 0.001 0.15 1.73
Newberry Springs 5/6/26 0300 0.00 0.00 0.00 0.00 2.70 0.002 0.26 1.96
Pinon Hills 5/6/26 0300 0.00 0.00 0.00 0.00 15.51 0.000 0.11 1.46
Helendale 5/6/26 0300 0.00 0.00 0.00 0.00 5.55 0.001 0.19 1.72
Lenwood 5/6/26 0300 0.00 0.00 0.00 0.00 4.24 0.000 0.21 1.81
Oak Hills 5/6/26 0300 0.00 0.00 0.00 0.00 14.72 0.000 0.13 1.33
Pipes Wash Canyon 5/6/26 0300 0.00 0.00 0.00 0.00 13.92 0.000 0.12 1.47
Max     0.00 0.00 0.00 0.00 15.51 0.002 0.26 1.96
Avg     0.00 - - - - - - -
Min     0.00 0.00 0.00 0.00 2.70 0.000 0.11 1.33